sensor_id;sensor_type;location;lat;lon;timestamp;pressure;altitude;pressure_sealevel;temperature;humidity
84710;BME280;75589;42.648;23.274;2024-01-10T00:01:58;94405.50;;;-6.52;75.37
84710;BME280;75589;42.648;23.274;2024-01-10T00:04:24;94397.16;;;-6.69;75.53
84710;BME280;75589;42.648;23.274;2024-01-10T00:06:49;94401.09;;;-6.82;74.50
84710;BME280;75589;42.648;23.274;2024-01-10T00:09:15;94389.44;;;-6.91;75.21
84710;BME280;75589;42.648;23.274;2024-01-10T00:11:41;94396.69;;;-6.88;76.64
84710;BME280;75589;42.648;23.274;2024-01-10T00:14:06;94406.44;;;-6.77;75.16
84710;BME280;75589;42.648;23.274;2024-01-10T00:16:32;94379.50;;;-6.93;75.79
84710;BME280;75589;42.648;23.274;2024-01-10T00:18:57;94373.69;;;-6.85;75.11
84710;BME280;75589;42.648;23.274;2024-01-10T00:21:23;94407.22;;;-6.85;76.08
84710;BME280;75589;42.648;23.274;2024-01-10T00:23:48;94413.53;;;-6.81;78.68
84710;BME280;75589;42.648;23.274;2024-01-10T00:26:14;94403.25;;;-6.95;75.52
84710;BME280;75589;42.648;23.274;2024-01-10T00:28:40;94403.75;;;-6.92;74.72
84710;BME280;75589;42.648;23.274;2024-01-10T00:31:07;94419.81;;;-6.85;77.27
84710;BME280;75589;42.648;23.274;2024-01-10T00:33:32;94425.91;;;-7.12;76.02
84710;BME280;75589;42.648;23.274;2024-01-10T00:35:58;94428.59;;;-7.05;76.76
84710;BME280;75589;42.648;23.274;2024-01-10T00:38:23;94409.25;;;-7.05;77.60
84710;BME280;75589;42.648;23.274;2024-01-10T00:40:49;94411.88;;;-7.22;77.42
84710;BME280;75589;42.648;23.274;2024-01-10T00:43:14;94387.00;;;-7.33;75.24
84710;BME280;75589;42.648;23.274;2024-01-10T00:45:40;94385.69;;;-7.53;76.62
84710;BME280;75589;42.648;23.274;2024-01-10T00:48:05;94430.44;;;-7.15;76.87
84710;BME280;75589;42.648;23.274;2024-01-10T00:50:31;94410.16;;;-7.22;76.59
84710;BME280;75589;42.648;23.274;2024-01-10T00:52:56;94428.94;;;-6.84;75.53
84710;BME280;75589;42.648;23.274;2024-01-10T00:55:22;94427.66;;;-7.04;75.12
84710;BME280;75589;42.648;23.274;2024-01-10T00:57:47;94412.06;;;-7.08;76.74
84710;BME280;75589;42.648;23.274;2024-01-10T01:00:13;94428.13;;;-7.01;76.51
84710;BME280;75589;42.648;23.274;2024-01-10T01:02:39;94410.81;;;-7.12;76.70
84710;BME280;75589;42.648;23.274;2024-01-10T01:05:05;94413.63;;;-7.15;76.99
84710;BME280;75589;42.648;23.274;2024-01-10T01:07:32;94407.78;;;-7.23;77.90
84710;BME280;75589;42.648;23.274;2024-01-10T01:09:57;94400.38;;;-7.33;76.29
84710;BME280;75589;42.648;23.274;2024-01-10T01:12:23;94423.66;;;-7.23;77.01
84710;BME280;75589;42.648;23.274;2024-01-10T01:14:48;94405.69;;;-7.44;76.20
84710;BME280;75589;42.648;23.274;2024-01-10T01:17:14;94406.34;;;-7.26;77.38
84710;BME280;75589;42.648;23.274;2024-01-10T01:19:39;94418.13;;;-7.26;76.27
84710;BME280;75589;42.648;23.274;2024-01-10T01:22:05;94428.41;;;-7.20;76.04
84710;BME280;75589;42.648;23.274;2024-01-10T01:24:30;94401.16;;;-7.32;77.85
84710;BME280;75589;42.648;23.274;2024-01-10T01:26:56;94399.25;;;-7.38;76.04
84710;BME280;75589;42.648;23.274;2024-01-10T01:29:21;94388.75;;;-7.26;76.38
84710;BME280;75589;42.648;23.274;2024-01-10T01:31:47;94402.78;;;-7.15;77.09
84710;BME280;75589;42.648;23.274;2024-01-10T01:34:13;94404.03;;;-7.19;75.78
84710;BME280;75589;42.648;23.274;2024-01-10T01:36:38;94413.47;;;-7.05;75.85
84710;BME280;75589;42.648;23.274;2024-01-10T01:39:04;94397.91;;;-7.09;75.86
84710;BME280;75589;42.648;23.274;2024-01-10T01:41:29;94381.22;;;-7.18;75.67
84710;BME280;75589;42.648;23.274;2024-01-10T01:43:55;94385.00;;;-7.22;76.63
84710;BME280;75589;42.648;23.274;2024-01-10T01:46:21;94403.75;;;-7.00;74.74
84710;BME280;75589;42.648;23.274;2024-01-10T01:48:48;94375.84;;;-7.31;76.05
84710;BME280;75589;42.648;23.274;2024-01-10T01:51:15;94380.25;;;-7.33;76.65
84710;BME280;75589;42.648;23.274;2024-01-10T01:53:44;94374.59;;;-7.35;77.36
84710;BME280;75589;42.648;23.274;2024-01-10T01:56:10;94399.63;;;-7.17;76.96
84710;BME280;75589;42.648;23.274;2024-01-10T01:58:38;94393.47;;;-7.23;76.70
84710;BME280;75589;42.648;23.274;2024-01-10T02:01:05;94387.50;;;-7.30;75.57
84710;BME280;75589;42.648;23.274;2024-01-10T02:03:31;94403.41;;;-7.13;76.21
84710;BME280;75589;42.648;23.274;2024-01-10T02:05:58;94395.38;;;-7.09;76.80
84710;BME280;75589;42.648;23.274;2024-01-10T02:08:24;94379.34;;;-7.16;75.92
84710;BME280;75589;42.648;23.274;2024-01-10T02:10:50;94358.22;;;-7.39;76.96
84710;BME280;75589;42.648;23.274;2024-01-10T02:13:16;94385.13;;;-7.31;77.56
84710;BME280;75589;42.648;23.274;2024-01-10T02:15:42;94358.72;;;-7.35;77.49
84710;BME280;75589;42.648;23.274;2024-01-10T02:18:08;94389.84;;;-7.28;77.71
84710;BME280;75589;42.648;23.274;2024-01-10T02:20:38;94350.81;;;-7.48;78.06
84710;BME280;75589;42.648;23.274;2024-01-10T02:23:03;94371.44;;;-7.29;78.25
84710;BME280;75589;42.648;23.274;2024-01-10T02:25:29;94386.38;;;-7.35;77.38
84710;BME280;75589;42.648;23.274;2024-01-10T02:27:54;94394.91;;;-7.20;78.85
84710;BME280;75589;42.648;23.274;2024-01-10T02:30:20;94392.22;;;-7.27;77.55
84710;BME280;75589;42.648;23.274;2024-01-10T02:32:45;94371.56;;;-7.46;78.37
84710;BME280;75589;42.648;23.274;2024-01-10T02:35:11;94369.38;;;-7.41;77.74
84710;BME280;75589;42.648;23.274;2024-01-10T02:37:36;94368.75;;;-7.43;77.85
84710;BME280;75589;42.648;23.274;2024-01-10T02:40:02;94359.31;;;-7.41;77.57
84710;BME280;75589;42.648;23.274;2024-01-10T02:42:28;94361.03;;;-7.42;76.56
84710;BME280;75589;42.648;23.274;2024-01-10T02:44:54;94391.44;;;-7.19;76.35
84710;BME280;75589;42.648;23.274;2024-01-10T02:47:19;94392.38;;;-7.20;76.97
84710;BME280;75589;42.648;23.274;2024-01-10T02:49:45;94362.78;;;-7.42;77.09
84710;BME280;75589;42.648;23.274;2024-01-10T02:52:10;94386.09;;;-7.24;76.22
84710;BME280;75589;42.648;23.274;2024-01-10T02:54:36;94352.06;;;-7.44;77.22
84710;BME280;75589;42.648;23.274;2024-01-10T02:57:01;94356.78;;;-7.41;76.16
84710;BME280;75589;42.648;23.274;2024-01-10T02:59:27;94361.53;;;-7.38;76.18
84710;BME280;75589;42.648;23.274;2024-01-10T03:01:53;94370.97;;;-7.40;75.14
84710;BME280;75589;42.648;23.274;2024-01-10T03:04:18;94390.63;;;-7.36;75.51
84710;BME280;75589;42.648;23.274;2024-01-10T03:06:44;94356.00;;;-7.50;75.92
84710;BME280;75589;42.648;23.274;2024-01-10T03:09:10;94378.00;;;-7.44;77.08
84710;BME280;75589;42.648;23.274;2024-01-10T03:11:36;94360.72;;;-7.47;76.87
84710;BME280;75589;42.648;23.274;2024-01-10T03:14:03;94362.31;;;-7.38;76.65
84710;BME280;75589;42.648;23.274;2024-01-10T03:16:32;94367.38;;;-7.30;76.70
84710;BME280;75589;42.648;23.274;2024-01-10T03:18:58;94387.50;;;-7.22;76.48
84710;BME280;75589;42.648;23.274;2024-01-10T03:21:23;94373.81;;;-7.27;75.35
84710;BME280;75589;42.648;23.274;2024-01-10T03:23:52;94369.41;;;-7.25;75.17
84710;BME280;75589;42.648;23.274;2024-01-10T03:26:17;94354.16;;;-7.40;75.68
84710;BME280;75589;42.648;23.274;2024-01-10T03:28:43;94389.72;;;-7.11;76.40
84710;BME280;75589;42.648;23.274;2024-01-10T03:31:10;94392.75;;;-6.91;76.65
84710;BME280;75589;42.648;23.274;2024-01-10T03:33:36;94351.81;;;-7.17;76.44
84710;BME280;75589;42.648;23.274;2024-01-10T03:36:02;94359.34;;;-7.25;75.31
84710;BME280;75589;42.648;23.274;2024-01-10T03:38:28;94377.97;;;-6.94;73.63
84710;BME280;75589;42.648;23.274;2024-01-10T03:40:53;94372.44;;;-6.89;73.72
84710;BME280;75589;42.648;23.274;2024-01-10T03:43:19;94373.72;;;-7.02;74.56
84710;BME280;75589;42.648;23.274;2024-01-10T03:45:44;94395.91;;;-6.81;74.65
84710;BME280;75589;42.648;23.274;2024-01-10T03:48:09;94369.91;;;-6.97;73.98
84710;BME280;75589;42.648;23.274;2024-01-10T03:50:35;94378.91;;;-6.87;72.98
84710;BME280;75589;42.648;23.274;2024-01-10T03:53:01;94357.94;;;-7.20;72.73
84710;BME280;75589;42.648;23.274;2024-01-10T03:55:26;94362.34;;;-7.22;73.09
84710;BME280;75589;42.648;23.274;2024-01-10T03:57:52;94360.59;;;-7.21;72.95
84710;BME280;75589;42.648;23.274;2024-01-10T04:00:17;94376.53;;;-7.05;72.86
84710;BME280;75589;42.648;23.274;2024-01-10T04:02:44;94406.28;;;-6.92;71.48
84710;BME280;75589;42.648;23.274;2024-01-10T04:05:09;94378.41;;;-7.07;70.68
84710;BME280;75589;42.648;23.274;2024-01-10T04:07:39;94382.16;;;-7.19;70.51
84710;BME280;75589;42.648;23.274;2024-01-10T04:10:05;94404.97;;;-7.12;71.16
84710;BME280;75589;42.648;23.274;2024-01-10T04:12:32;94404.38;;;-6.98;71.00
84710;BME280;75589;42.648;23.274;2024-01-10T04:14:58;94387.66;;;-7.23;70.76
84710;BME280;75589;42.648;23.274;2024-01-10T04:17:23;94393.34;;;-7.13;71.48
84710;BME280;75589;42.648;23.274;2024-01-10T04:19:49;94387.84;;;-7.17;70.43
84710;BME280;75589;42.648;23.274;2024-01-10T04:22:14;94391.00;;;-6.98;69.39
84710;BME280;75589;42.648;23.274;2024-01-10T04:24:40;94413.78;;;-7.08;68.52
84710;BME280;75589;42.648;23.274;2024-01-10T04:27:05;94417.56;;;-7.12;69.71
84710;BME280;75589;42.648;23.274;2024-01-10T04:29:31;94413.63;;;-7.15;67.98
84710;BME280;75589;42.648;23.274;2024-01-10T04:31:56;94398.50;;;-7.23;69.61
84710;BME280;75589;42.648;23.274;2024-01-10T04:34:22;94420.84;;;-7.20;70.49
84710;BME280;75589;42.648;23.274;2024-01-10T04:36:48;94417.06;;;-7.24;70.68
84710;BME280;75589;42.648;23.274;2024-01-10T04:39:14;94433.94;;;-7.00;68.12
84710;BME280;75589;42.648;23.274;2024-01-10T04:41:39;94428.56;;;-7.13;69.84
84710;BME280;75589;42.648;23.274;2024-01-10T04:44:05;94420.22;;;-7.22;71.19
84710;BME280;75589;42.648;23.274;2024-01-10T04:46:30;94428.25;;;-7.10;70.57
84710;BME280;75589;42.648;23.274;2024-01-10T04:48:56;94422.91;;;-7.07;72.31
84710;BME280;75589;42.648;23.274;2024-01-10T04:51:21;94433.13;;;-7.09;68.66
84710;BME280;75589;42.648;23.274;2024-01-10T04:53:47;94434.09;;;-7.02;69.70
84710;BME280;75589;42.648;23.274;2024-01-10T04:56:13;94426.38;;;-7.08;68.97
84710;BME280;75589;42.648;23.274;2024-01-10T04:58:38;94423.38;;;-7.20;70.05
84710;BME280;75589;42.648;23.274;2024-01-10T05:01:04;94427.59;;;-7.20;69.30
84710;BME280;75589;42.648;23.274;2024-01-10T05:03:29;94437.25;;;-7.00;70.08
84710;BME280;75589;42.648;23.274;2024-01-10T05:05:55;94398.38;;;-7.13;69.74
84710;BME280;75589;42.648;23.274;2024-01-10T05:08:20;94416.28;;;-7.16;70.38
84710;BME280;75589;42.648;23.274;2024-01-10T05:10:46;94441.69;;;-6.93;69.91
84710;BME280;75589;42.648;23.274;2024-01-10T05:13:12;94451.13;;;-6.79;69.85
84710;BME280;75589;42.648;23.274;2024-01-10T05:15:38;94444.69;;;-6.74;69.62
84710;BME280;75589;42.648;23.274;2024-01-10T05:18:04;94441.84;;;-6.87;71.70
84710;BME280;75589;42.648;23.274;2024-01-10T05:20:32;94427.81;;;-6.97;69.29
84710;BME280;75589;42.648;23.274;2024-01-10T05:22:57;94437.75;;;-6.96;69.98
84710;BME280;75589;42.648;23.274;2024-01-10T05:25:24;94429.84;;;-7.09;69.71
84710;BME280;75589;42.648;23.274;2024-01-10T05:27:50;94443.75;;;-6.81;70.98
84710;BME280;75589;42.648;23.274;2024-01-10T05:30:16;94437.44;;;-6.85;69.77
84710;BME280;75589;42.648;23.274;2024-01-10T05:32:43;94449.25;;;-6.69;69.78
84710;BME280;75589;42.648;23.274;2024-01-10T05:35:09;94440.28;;;-6.72;70.63
84710;BME280;75589;42.648;23.274;2024-01-10T05:37:36;94427.06;;;-6.82;71.12
84710;BME280;75589;42.648;23.274;2024-01-10T05:40:03;94448.78;;;-6.65;69.12
84710;BME280;75589;42.648;23.274;2024-01-10T05:42:31;94432.41;;;-6.77;69.09
84710;BME280;75589;42.648;23.274;2024-01-10T05:44:59;94451.00;;;-6.78;67.03
84710;BME280;75589;42.648;23.274;2024-01-10T05:47:24;94443.72;;;-6.89;68.57
84710;BME280;75589;42.648;23.274;2024-01-10T05:49:51;94452.41;;;-6.67;71.02
84710;BME280;75589;42.648;23.274;2024-01-10T05:52:18;94451.31;;;-6.57;70.78
84710;BME280;75589;42.648;23.274;2024-01-10T05:54:44;94437.94;;;-6.73;70.96
84710;BME280;75589;42.648;23.274;2024-01-10T05:57:10;94441.81;;;-6.95;69.05
84710;BME280;75589;42.648;23.274;2024-01-10T05:59:36;94469.41;;;-6.69;70.21
84710;BME280;75589;42.648;23.274;2024-01-10T06:02:02;94459.59;;;-6.80;68.22
84710;BME280;75589;42.648;23.274;2024-01-10T06:04:28;94456.16;;;-6.87;69.62
84710;BME280;75589;42.648;23.274;2024-01-10T06:06:58;94482.50;;;-6.58;68.88
84710;BME280;75589;42.648;23.274;2024-01-10T06:09:24;94460.88;;;-6.84;69.49
84710;BME280;75589;42.648;23.274;2024-01-10T06:11:49;94462.63;;;-6.69;69.12
84710;BME280;75589;42.648;23.274;2024-01-10T06:14:15;94467.03;;;-6.79;69.39
84710;BME280;75589;42.648;23.274;2024-01-10T06:16:40;94468.16;;;-6.65;69.00
84710;BME280;75589;42.648;23.274;2024-01-10T06:19:06;94482.72;;;-6.93;69.59
84710;BME280;75589;42.648;23.274;2024-01-10T06:21:31;94450.94;;;-6.94;71.36
84710;BME280;75589;42.648;23.274;2024-01-10T06:23:57;94452.56;;;-6.69;69.36
84710;BME280;75589;42.648;23.274;2024-01-10T06:26:23;94470.34;;;-6.70;68.93
84710;BME280;75589;42.648;23.274;2024-01-10T06:28:48;94484.81;;;-6.64;69.50
84710;BME280;75589;42.648;23.274;2024-01-10T06:31:14;94456.16;;;-6.79;69.52
84710;BME280;75589;42.648;23.274;2024-01-10T06:33:40;94476.34;;;-6.63;70.06
84710;BME280;75589;42.648;23.274;2024-01-10T06:36:05;94500.44;;;-6.53;67.59
84710;BME280;75589;42.648;23.274;2024-01-10T06:38:31;94490.66;;;-6.56;68.30
84710;BME280;75589;42.648;23.274;2024-01-10T06:40:56;94496.50;;;-6.31;68.09
84710;BME280;75589;42.648;23.274;2024-01-10T06:43:22;94488.16;;;-6.56;69.55
84710;BME280;75589;42.648;23.274;2024-01-10T06:45:48;94487.06;;;-6.13;68.69
84710;BME280;75589;42.648;23.274;2024-01-10T06:48:14;94495.22;;;-5.79;67.62
84710;BME280;75589;42.648;23.274;2024-01-10T06:50:40;94499.44;;;-4.24;67.07
84710;BME280;75589;42.648;23.274;2024-01-10T06:53:05;94501.47;;;-4.42;63.01
84710;BME280;75589;42.648;23.274;2024-01-10T06:55:31;94482.97;;;-4.20;57.13
84710;BME280;75589;42.648;23.274;2024-01-10T06:57:57;94517.72;;;-4.14;60.00
84710;BME280;75589;42.648;23.274;2024-01-10T07:00:22;94519.00;;;-4.71;58.95
84710;BME280;75589;42.648;23.274;2024-01-10T07:02:49;94481.81;;;-4.85;59.86
84710;BME280;75589;42.648;23.274;2024-01-10T07:05:14;94497.31;;;-4.88;59.62
84710;BME280;75589;42.648;23.274;2024-01-10T07:07:41;94530.28;;;-4.90;58.39
84710;BME280;75589;42.648;23.274;2024-01-10T07:10:07;94520.66;;;-5.41;62.37
84710;BME280;75589;42.648;23.274;2024-01-10T07:12:35;94525.91;;;-5.59;61.30
84710;BME280;75589;42.648;23.274;2024-01-10T07:15:01;94516.81;;;-5.21;60.38
84710;BME280;75589;42.648;23.274;2024-01-10T07:17:28;94504.28;;;-4.98;59.23
84710;BME280;75589;42.648;23.274;2024-01-10T07:19:54;94499.22;;;-4.14;55.47
84710;BME280;75589;42.648;23.274;2024-01-10T07:22:22;94516.03;;;-5.14;61.70
84710;BME280;75589;42.648;23.274;2024-01-10T07:24:48;94534.25;;;-4.95;60.53
84710;BME280;75589;42.648;23.274;2024-01-10T07:27:13;94529.13;;;-5.26;60.09
84710;BME280;75589;42.648;23.274;2024-01-10T07:29:40;94551.75;;;-5.49;62.80
84710;BME280;75589;42.648;23.274;2024-01-10T07:32:06;94530.09;;;-5.27;58.76
84710;BME280;75589;42.648;23.274;2024-01-10T07:34:39;94532.22;;;-5.63;59.95
84710;BME280;75589;42.648;23.274;2024-01-10T07:37:04;94523.41;;;-5.75;60.15
84710;BME280;75589;42.648;23.274;2024-01-10T07:39:30;94550.50;;;-5.77;60.83
84710;BME280;75589;42.648;23.274;2024-01-10T07:41:56;94563.53;;;-5.25;59.22
84710;BME280;75589;42.648;23.274;2024-01-10T07:44:21;94524.81;;;-5.56;59.21
84710;BME280;75589;42.648;23.274;2024-01-10T07:46:47;94550.50;;;-5.45;59.68
84710;BME280;75589;42.648;23.274;2024-01-10T07:49:12;94523.56;;;-5.60;59.81
84710;BME280;75589;42.648;23.274;2024-01-10T07:51:38;94520.84;;;-5.51;59.03
84710;BME280;75589;42.648;23.274;2024-01-10T07:54:03;94553.97;;;-5.54;60.81
84710;BME280;75589;42.648;23.274;2024-01-10T07:56:29;94535.00;;;-5.34;61.44
84710;BME280;75589;42.648;23.274;2024-01-10T07:58:55;94524.91;;;-5.34;59.93
84710;BME280;75589;42.648;23.274;2024-01-10T08:01:21;94542.44;;;-5.32;61.31
84710;BME280;75589;42.648;23.274;2024-01-10T08:03:47;94531.88;;;-5.44;60.23
84710;BME280;75589;42.648;23.274;2024-01-10T08:06:12;94523.78;;;-5.23;58.90
84710;BME280;75589;42.648;23.274;2024-01-10T08:08:39;94560.41;;;-4.80;59.14
84710;BME280;75589;42.648;23.274;2024-01-10T08:11:04;94542.88;;;-5.29;56.24
84710;BME280;75589;42.648;23.274;2024-01-10T08:13:30;94536.78;;;-5.50;56.71
84710;BME280;75589;42.648;23.274;2024-01-10T08:15:56;94545.09;;;-5.34;57.50
84710;BME280;75589;42.648;23.274;2024-01-10T08:18:22;94552.84;;;-5.35;55.79
84710;BME280;75589;42.648;23.274;2024-01-10T08:20:48;94533.88;;;-5.31;60.19
84710;BME280;75589;42.648;23.274;2024-01-10T08:23:13;94553.41;;;-4.70;61.53
84710;BME280;75589;42.648;23.274;2024-01-10T08:25:39;94539.69;;;-4.68;58.61
84710;BME280;75589;42.648;23.274;2024-01-10T08:28:06;94555.75;;;-4.61;58.80
84710;BME280;75589;42.648;23.274;2024-01-10T08:30:31;94523.66;;;-4.29;58.99
84710;BME280;75589;42.648;23.274;2024-01-10T08:32:57;94539.84;;;-4.47;58.86
84710;BME280;75589;42.648;23.274;2024-01-10T08:35:23;94571.50;;;-4.59;61.82
84710;BME280;75589;42.648;23.274;2024-01-10T08:37:48;94538.94;;;-4.84;65.37
84710;BME280;75589;42.648;23.274;2024-01-10T08:40:14;94546.81;;;-4.79;64.98
84710;BME280;75589;42.648;23.274;2024-01-10T08:42:41;94555.06;;;-4.85;64.73
84710;BME280;75589;42.648;23.274;2024-01-10T08:45:08;94526.56;;;-5.02;64.52
84710;BME280;75589;42.648;23.274;2024-01-10T08:47:35;94566.78;;;-5.00;64.04
84710;BME280;75589;42.648;23.274;2024-01-10T08:50:02;94570.03;;;-4.84;64.76
84710;BME280;75589;42.648;23.274;2024-01-10T08:52:33;94551.69;;;-5.09;63.78
84710;BME280;75589;42.648;23.274;2024-01-10T08:54:59;94570.63;;;-4.74;63.60
84710;BME280;75589;42.648;23.274;2024-01-10T08:57:25;94568.59;;;-4.70;64.54
84710;BME280;75589;42.648;23.274;2024-01-10T08:59:53;94529.03;;;-5.41;64.62
84710;BME280;75589;42.648;23.274;2024-01-10T09:02:18;94569.28;;;-4.92;63.33
84710;BME280;75589;42.648;23.274;2024-01-10T09:04:44;94538.56;;;-5.12;65.93
84710;BME280;75589;42.648;23.274;2024-01-10T09:07:09;94525.88;;;-5.43;64.43
84710;BME280;75589;42.648;23.274;2024-01-10T09:09:35;94545.78;;;-5.56;66.32
84710;BME280;75589;42.648;23.274;2024-01-10T09:12:01;94532.66;;;-5.35;64.73
84710;BME280;75589;42.648;23.274;2024-01-10T09:14:26;94552.50;;;-5.16;64.63
84710;BME280;75589;42.648;23.274;2024-01-10T09:16:52;94551.53;;;-5.23;65.79
84710;BME280;75589;42.648;23.274;2024-01-10T09:19:18;94529.63;;;-5.23;64.68
84710;BME280;75589;42.648;23.274;2024-01-10T09:21:43;94548.06;;;-5.14;67.58
84710;BME280;75589;42.648;23.274;2024-01-10T09:24:09;94560.16;;;-4.93;66.00
84710;BME280;75589;42.648;23.274;2024-01-10T09:26:36;94533.53;;;-5.12;65.01
84710;BME280;75589;42.648;23.274;2024-01-10T09:29:02;94527.19;;;-5.08;66.36
84710;BME280;75589;42.648;23.274;2024-01-10T09:31:27;94549.78;;;-5.15;66.41
84710;BME280;75589;42.648;23.274;2024-01-10T09:33:53;94550.47;;;-4.90;68.18
84710;BME280;75589;42.648;23.274;2024-01-10T09:36:18;94525.25;;;-4.98;67.07
84710;BME280;75589;42.648;23.274;2024-01-10T09:38:44;94552.13;;;-4.66;64.20
84710;BME280;75589;42.648;23.274;2024-01-10T09:41:11;94540.25;;;-4.88;65.11
84710;BME280;75589;42.648;23.274;2024-01-10T09:43:37;94525.13;;;-4.96;66.21
84710;BME280;75589;42.648;23.274;2024-01-10T09:46:03;94541.75;;;-4.79;66.35
84710;BME280;75589;42.648;23.274;2024-01-10T09:48:31;94531.91;;;-4.66;65.27
84710;BME280;75589;42.648;23.274;2024-01-10T09:50:58;94531.94;;;-4.74;66.55
84710;BME280;75589;42.648;23.274;2024-01-10T09:53:26;94554.66;;;-4.66;65.68
84710;BME280;75589;42.648;23.274;2024-01-10T09:55:53;94545.84;;;-4.70;65.74
84710;BME280;75589;42.648;23.274;2024-01-10T09:58:23;94535.88;;;-4.72;66.08
84710;BME280;75589;42.648;23.274;2024-01-10T10:00:50;94550.41;;;-4.66;65.82
84710;BME280;75589;42.648;23.274;2024-01-10T10:03:17;94528.63;;;-4.75;67.94
84710;BME280;75589;42.648;23.274;2024-01-10T10:05:43;94496.81;;;-4.84;65.55
84710;BME280;75589;42.648;23.274;2024-01-10T10:08:11;94532.22;;;-4.38;64.87
84710;BME280;75589;42.648;23.274;2024-01-10T10:10:37;94517.63;;;-4.51;68.20
84710;BME280;75589;42.648;23.274;2024-01-10T10:13:09;94491.06;;;-4.47;64.98
84710;BME280;75589;42.648;23.274;2024-01-10T10:15:37;94514.94;;;-4.50;65.58
84710;BME280;75589;42.648;23.274;2024-01-10T10:18:03;94495.78;;;-4.44;65.82
84710;BME280;75589;42.648;23.274;2024-01-10T10:20:30;94484.34;;;-4.32;64.75
84710;BME280;75589;42.648;23.274;2024-01-10T10:23:08;94498.38;;;-4.29;65.11
84710;BME280;75589;42.648;23.274;2024-01-10T10:25:45;94489.09;;;-4.14;63.87
84710;BME280;75589;42.648;23.274;2024-01-10T10:28:13;94499.25;;;-4.00;64.89
84710;BME280;75589;42.648;23.274;2024-01-10T10:30:38;94500.22;;;-4.01;64.24
84710;BME280;75589;42.648;23.274;2024-01-10T10:33:05;94490.56;;;-3.83;64.98
84710;BME280;75589;42.648;23.274;2024-01-10T10:35:34;94469.75;;;-4.07;65.27
84710;BME280;75589;42.648;23.274;2024-01-10T10:37:59;94479.41;;;-4.11;65.79
84710;BME280;75589;42.648;23.274;2024-01-10T10:40:25;94464.38;;;-4.04;64.58
84710;BME280;75589;42.648;23.274;2024-01-10T10:42:57;94484.69;;;-3.98;64.85
84710;BME280;75589;42.648;23.274;2024-01-10T10:45:23;94444.66;;;-4.09;65.21
84710;BME280;75589;42.648;23.274;2024-01-10T10:47:59;94464.38;;;-4.04;65.25
84710;BME280;75589;42.648;23.274;2024-01-10T10:50:33;94453.63;;;-4.06;64.34
84710;BME280;75589;42.648;23.274;2024-01-10T10:53:00;94439.94;;;-4.12;65.60
84710;BME280;75589;42.648;23.274;2024-01-10T10:55:29;94468.63;;;-3.67;63.39
84710;BME280;75589;42.648;23.274;2024-01-10T10:57:55;94438.22;;;-3.97;64.30
84710;BME280;75589;42.648;23.274;2024-01-10T11:00:21;94462.41;;;-3.80;63.33
84710;BME280;75589;42.648;23.274;2024-01-10T11:02:53;94445.13;;;-3.91;64.50
84710;BME280;75589;42.648;23.274;2024-01-10T11:05:20;94443.34;;;-3.90;64.12
84710;BME280;75589;42.648;23.274;2024-01-10T11:07:45;94455.97;;;-3.67;62.39
84710;BME280;75589;42.648;23.274;2024-01-10T11:10:20;94458.41;;;-3.59;63.26
84710;BME280;75589;42.648;23.274;2024-01-10T11:21:37;94442.09;;;-3.42;63.19
84710;BME280;75589;42.648;23.274;2024-01-10T11:24:07;94401.50;;;-3.49;61.68
84710;BME280;75589;42.648;23.274;2024-01-10T11:26:37;94411.28;;;-3.46;63.24
84710;BME280;75589;42.648;23.274;2024-01-10T11:29:04;94440.38;;;-3.42;62.09
84710;BME280;75589;42.648;23.274;2024-01-10T11:31:31;94428.81;;;-3.30;65.36
84710;BME280;75589;42.648;23.274;2024-01-10T11:34:02;94423.81;;;-3.08;61.31
84710;BME280;75589;42.648;23.274;2024-01-10T11:36:28;94422.19;;;-3.16;63.43
84710;BME280;75589;42.648;23.274;2024-01-10T11:38:58;94395.47;;;-3.33;62.56
84710;BME280;75589;42.648;23.274;2024-01-10T11:41:31;94401.13;;;-3.31;64.08
84710;BME280;75589;42.648;23.274;2024-01-10T11:46:45;94394.19;;;-3.08;62.30
84710;BME280;75589;42.648;23.274;2024-01-10T11:49:14;94412.94;;;-2.88;62.46
84710;BME280;75589;42.648;23.274;2024-01-10T11:51:48;94394.56;;;-3.11;62.35
84710;BME280;75589;42.648;23.274;2024-01-10T11:57:01;94372.50;;;-2.96;61.44
84710;BME280;75589;42.648;23.274;2024-01-10T11:59:27;94375.03;;;-2.96;60.96
84710;BME280;75589;42.648;23.274;2024-01-10T12:01:54;94368.53;;;-2.84;60.40
84710;BME280;75589;42.648;23.274;2024-01-10T12:04:19;94392.19;;;-2.77;63.19
84710;BME280;75589;42.648;23.274;2024-01-10T12:06:45;94374.41;;;-2.83;61.74
84710;BME280;75589;42.648;23.274;2024-01-10T12:09:12;94375.47;;;-2.71;61.64
84710;BME280;75589;42.648;23.274;2024-01-10T12:11:39;94393.16;;;-2.57;60.58
84710;BME280;75589;42.648;23.274;2024-01-10T12:14:05;94380.31;;;-2.55;60.49
84710;BME280;75589;42.648;23.274;2024-01-10T12:16:35;94376.75;;;-2.61;61.84
84710;BME280;75589;42.648;23.274;2024-01-10T12:19:01;94361.97;;;-2.57;60.48
84710;BME280;75589;42.648;23.274;2024-01-10T12:21:26;94383.69;;;-2.48;64.16
84710;BME280;75589;42.648;23.274;2024-01-10T12:23:52;94360.22;;;-2.78;60.91
84710;BME280;75589;42.648;23.274;2024-01-10T12:26:18;94347.81;;;-2.87;63.14
84710;BME280;75589;42.648;23.274;2024-01-10T12:28:57;94343.06;;;-2.76;61.03
84710;BME280;75589;42.648;23.274;2024-01-10T12:31:24;94363.13;;;-2.60;62.18
84710;BME280;75589;42.648;23.274;2024-01-10T12:33:52;94376.44;;;-2.51;62.05
84710;BME280;75589;42.648;23.274;2024-01-10T12:36:18;94369.13;;;-2.39;62.77
84710;BME280;75589;42.648;23.274;2024-01-10T12:38:45;94359.34;;;-2.42;63.86
84710;BME280;75589;42.648;23.274;2024-01-10T12:41:11;94380.16;;;-2.26;63.02
84710;BME280;75589;42.648;23.274;2024-01-10T12:43:37;94333.34;;;-2.51;63.33
84710;BME280;75589;42.648;23.274;2024-01-10T12:46:07;94363.19;;;-2.25;65.22
84710;BME280;75589;42.648;23.274;2024-01-10T12:48:35;94355.34;;;-2.30;62.84
84710;BME280;75589;42.648;23.274;2024-01-10T12:51:07;94352.63;;;-2.29;65.45
84710;BME280;75589;42.648;23.274;2024-01-10T12:53:39;94376.94;;;-2.13;64.36
84710;BME280;75589;42.648;23.274;2024-01-10T12:56:06;94346.31;;;-2.39;64.35
84710;BME280;75589;42.648;23.274;2024-01-10T12:58:34;94352.25;;;-2.26;64.28
84710;BME280;75589;42.648;23.274;2024-01-10T13:01:04;94376.25;;;-2.01;63.77